createdAt,value
2022-11-20T00:02:34.421Z,9.17
2022-11-20T00:05:21.326Z,8.83
2022-11-20T00:08:08.186Z,8.93
2022-11-20T00:10:55.026Z,8.90
2022-11-20T00:13:42.844Z,8.50
2022-11-20T00:16:32.066Z,9.60
2022-11-20T00:19:19.211Z,9.50
2022-11-20T00:22:06.346Z,10.27
2022-11-20T00:24:53.192Z,10.07
2022-11-20T00:27:40.034Z,9.23
2022-11-20T00:30:27.578Z,9.17
2022-11-20T00:33:14.419Z,10.10
2022-11-20T00:36:02.615Z,9.37
2022-11-20T00:38:52.568Z,9.17
2022-11-20T00:41:39.431Z,9.30
2022-11-20T00:44:26.322Z,9.73
2022-11-20T00:47:13.810Z,8.30
2022-11-20T00:50:00.699Z,9.07
2022-11-20T00:52:47.561Z,9.20
2022-11-20T00:55:34.918Z,9.13
2022-11-20T00:58:22.107Z,9.60
2022-11-20T01:01:11.059Z,11.43
2022-11-20T01:04:00.386Z,12.93
2022-11-20T01:06:47.249Z,15.10
2022-11-20T01:09:34.346Z,12.77
2022-11-20T01:12:21.199Z,11.23
2022-11-20T01:15:09.007Z,10.83
2022-11-20T01:17:55.855Z,9.43
2022-11-20T01:20:43.403Z,10.10
2022-11-20T01:23:34.171Z,9.13
2022-11-20T01:26:23.019Z,9.67
2022-11-20T01:29:14.168Z,9.57
2022-11-20T01:32:01.492Z,9.63
2022-11-20T01:34:48.332Z,9.93
2022-11-20T01:37:35.870Z,9.60
2022-11-20T01:40:22.723Z,10.30
2022-11-20T01:43:22.660Z,9.90
2022-11-20T01:46:15.680Z,9.10
2022-11-20T01:49:04.844Z,9.73
2022-11-20T01:51:56.481Z,10.00
2022-11-20T01:54:49.302Z,10.00
2022-11-20T01:57:37.956Z,10.70
2022-11-20T02:00:25.148Z,9.47
2022-11-20T02:03:15.908Z,9.33
2022-11-20T02:06:10.254Z,9.63
2022-11-20T02:08:57.118Z,10.00
2022-11-20T02:11:44.639Z,9.73
2022-11-20T02:14:31.523Z,9.30
2022-11-20T02:17:18.350Z,10.03
2022-11-20T02:20:06.541Z,9.77
2022-11-20T02:22:58.322Z,9.57
2022-11-20T02:25:47.487Z,10.10
2022-11-20T02:28:34.347Z,9.57
2022-11-20T02:31:21.270Z,9.67
2022-11-20T02:34:08.137Z,9.70
2022-11-20T02:36:56.131Z,9.20
2022-11-20T02:39:45.022Z,10.37
2022-11-20T02:42:32.690Z,9.30
2022-11-20T02:45:19.913Z,10.10
2022-11-20T02:48:07.082Z,10.07
2022-11-20T02:50:53.917Z,9.47
2022-11-20T02:53:40.902Z,9.90
2022-11-20T02:56:28.052Z,9.43
2022-11-20T02:59:15.557Z,9.60
2022-11-20T03:02:02.425Z,9.63
2022-11-20T03:04:49.370Z,9.40
2022-11-20T03:07:36.272Z,9.70
2022-11-20T03:10:23.318Z,9.53
2022-11-20T03:13:10.219Z,11.10
2022-11-20T03:15:57.702Z,9.90
2022-11-20T03:18:44.594Z,10.13
2022-11-20T03:21:33.047Z,10.23
2022-11-20T03:24:19.910Z,9.80
2022-11-20T03:27:06.798Z,9.73
2022-11-20T03:29:53.638Z,9.60
2022-11-20T03:32:41.235Z,9.90
2022-11-20T03:35:28.115Z,9.70
2022-11-20T03:38:14.966Z,10.00
2022-11-20T03:41:03.447Z,9.57
2022-11-20T03:43:51.139Z,10.70
2022-11-20T03:46:38.183Z,9.40
2022-11-20T03:49:25.687Z,9.83
2022-11-20T03:52:12.554Z,9.97
2022-11-20T03:54:59.408Z,10.30
2022-11-20T03:57:46.288Z,10.30
2022-11-20T04:00:33.147Z,9.27
2022-11-20T04:03:20.379Z,10.67
2022-11-20T04:06:10.524Z,10.30
2022-11-20T04:08:58.531Z,11.07
2022-11-20T04:11:45.383Z,11.23
2022-11-20T04:14:32.253Z,11.27
2022-11-20T04:17:19.131Z,11.57
2022-11-20T04:20:07.256Z,11.40
2022-11-20T04:22:55.076Z,9.80
2022-11-20T04:25:41.946Z,10.83
2022-11-20T04:28:28.821Z,10.00
2022-11-20T04:31:17.937Z,10.50
2022-11-20T04:34:06.576Z,10.63
2022-11-20T04:36:53.436Z,10.37
2022-11-20T04:39:40.957Z,13.17
2022-11-20T04:42:30.692Z,14.60
2022-11-20T04:45:17.613Z,14.53
2022-11-20T04:48:05.124Z,16.30
2022-11-20T04:50:52.857Z,15.77
2022-11-20T04:53:39.805Z,16.10
2022-11-20T04:56:27.297Z,15.03
2022-11-20T04:59:14.442Z,13.60
2022-11-20T05:02:01.482Z,14.80
2022-11-20T05:04:48.377Z,14.20
2022-11-20T05:07:35.241Z,14.47
2022-11-20T05:10:22.129Z,13.90
2022-11-20T05:13:09.589Z,12.53
2022-11-20T05:15:56.465Z,12.77
2022-11-20T05:18:43.586Z,12.73
2022-11-20T05:21:31.795Z,14.43
2022-11-20T05:24:18.634Z,13.70
2022-11-20T05:27:05.485Z,13.83
2022-11-20T05:29:52.990Z,14.70
2022-11-20T05:32:39.865Z,13.33
2022-11-20T05:35:26.723Z,13.73
2022-11-20T05:38:13.569Z,13.57
2022-11-20T05:41:05.006Z,12.97
2022-11-20T05:43:52.310Z,12.87
2022-11-20T05:46:39.802Z,13.43
2022-11-20T05:49:26.663Z,13.57
2022-11-20T05:52:13.555Z,11.77
2022-11-20T05:55:03.427Z,13.00
2022-11-20T05:57:50.267Z,13.43
2022-11-20T06:00:37.958Z,12.30
2022-11-20T06:03:25.470Z,12.80
2022-11-20T06:06:13.674Z,13.83
2022-11-20T06:09:00.571Z,11.70
2022-11-20T06:11:47.409Z,11.80
2022-11-20T06:14:34.327Z,12.17
2022-11-20T06:17:21.194Z,12.80
2022-11-20T06:20:10.316Z,12.67
2022-11-20T06:22:57.209Z,12.43
2022-11-20T06:25:44.152Z,12.47
2022-11-20T06:28:31.959Z,12.67
2022-11-20T06:31:20.175Z,12.73
2022-11-20T06:34:07.353Z,12.70
2022-11-20T06:36:54.839Z,11.63
2022-11-20T06:39:41.668Z,12.77
2022-11-20T06:42:28.540Z,12.70
2022-11-20T06:45:15.532Z,12.70
2022-11-20T06:48:03.050Z,12.07
2022-11-20T06:50:50.067Z,12.60
2022-11-20T06:53:37.960Z,13.47
2022-11-20T06:56:24.797Z,12.90
2022-11-20T07:00:04.086Z,13.47
2022-11-20T07:02:51.224Z,12.93
2022-11-20T07:05:38.588Z,13.40
2022-11-20T07:08:25.981Z,14.47
2022-11-20T07:11:14.052Z,12.83
2022-11-20T07:14:00.910Z,12.77
2022-11-20T07:16:47.724Z,12.60
2022-11-20T07:19:34.637Z,12.13
2022-11-20T07:22:22.059Z,12.10
2022-11-20T07:25:10.221Z,11.80
2022-11-20T07:28:04.218Z,12.50
2022-11-20T07:30:51.779Z,12.77
2022-11-20T07:33:38.657Z,13.17
2022-11-20T07:36:25.522Z,12.17
2022-11-20T07:39:12.432Z,12.33
2022-11-20T07:41:59.385Z,12.07
2022-11-20T07:44:46.887Z,12.17
2022-11-20T07:47:36.065Z,12.33
2022-11-20T07:50:22.958Z,12.80
2022-11-20T07:53:09.812Z,11.83
2022-11-20T07:56:00.457Z,12.13
2022-11-20T07:58:47.313Z,11.40
2022-11-20T08:01:34.810Z,12.40
2022-11-20T08:04:21.789Z,12.40
2022-11-20T08:07:08.735Z,12.80
2022-11-20T08:09:55.623Z,12.43
2022-11-20T08:13:04.601Z,13.67
2022-11-20T08:15:51.834Z,13.53
2022-11-20T08:18:39.340Z,14.50
2022-11-20T08:21:26.375Z,14.67
2022-11-20T08:24:13.359Z,14.00
2022-11-20T08:27:00.482Z,14.37
2022-11-20T08:29:47.319Z,14.97
2022-11-20T08:32:35.193Z,14.73
2022-11-20T08:35:22.860Z,13.93
2022-11-20T08:38:09.729Z,14.43
2022-11-20T08:41:16.065Z,14.87
2022-11-20T08:44:05.018Z,15.20
2022-11-20T08:46:51.884Z,15.47
2022-11-20T08:49:38.752Z,14.97
2022-11-20T08:52:26.982Z,14.60
2022-11-20T08:55:13.905Z,15.00
2022-11-20T08:58:03.960Z,13.90
2022-11-20T09:00:51.096Z,14.33
2022-11-20T09:03:38.057Z,13.47
2022-11-20T09:06:24.939Z,14.17
2022-11-20T09:09:12.466Z,14.73
2022-11-20T09:11:59.368Z,13.13
2022-11-20T09:14:48.753Z,13.30
2022-11-20T09:17:39.092Z,14.33
2022-11-20T09:20:28.780Z,14.30
2022-11-20T09:23:16.244Z,14.77
2022-11-20T09:26:06.039Z,15.07
2022-11-20T09:28:58.090Z,14.03
2022-11-20T09:31:45.111Z,14.17
2022-11-20T09:34:32.149Z,14.40
2022-11-20T09:37:19.000Z,14.67
2022-11-20T09:40:07.084Z,14.27
2022-11-20T09:43:00.004Z,14.00
2022-11-20T09:46:00.688Z,14.10
2022-11-20T09:49:04.168Z,15.60
2022-11-20T09:51:58.722Z,14.60
2022-11-20T09:55:13.227Z,14.47
2022-11-20T09:58:01.442Z,14.10
2022-11-20T10:01:43.357Z,14.27
2022-11-20T10:04:36.778Z,12.90
2022-11-20T10:08:31.997Z,14.33
2022-11-20T10:11:24.182Z,13.80
2022-11-20T10:14:43.115Z,13.97
2022-11-20T10:18:35.531Z,13.33
2022-11-20T10:26:26.005Z,14.27
2022-11-20T10:29:40.213Z,13.20
2022-11-20T10:36:56.083Z,13.20
2022-11-20T10:39:50.655Z,13.67
2022-11-20T10:42:44.086Z,13.70
2022-11-20T10:45:43.602Z,13.40
2022-11-20T10:48:32.005Z,13.30
2022-11-20T10:51:32.619Z,13.83
2022-11-20T10:54:27.954Z,13.60
2022-11-20T10:57:25.854Z,13.20
2022-11-20T11:00:13.713Z,13.10
2022-11-20T11:03:03.142Z,14.20
2022-11-20T11:05:55.282Z,13.73
2022-11-20T11:08:43.464Z,13.67
2022-11-20T11:11:33.978Z,13.67
2022-11-20T11:14:20.910Z,13.67
2022-11-20T11:17:27.051Z,13.73
2022-11-20T11:20:18.093Z,14.57
2022-11-20T11:23:11.186Z,13.73
2022-11-20T11:25:59.338Z,14.77
2022-11-20T11:28:54.592Z,14.87
2022-11-20T11:31:41.450Z,15.23
2022-11-20T11:34:28.419Z,16.47
2022-11-20T11:37:21.635Z,14.87
2022-11-20T11:40:27.558Z,16.47
2022-11-20T11:43:50.017Z,16.20
2022-11-20T11:46:37.879Z,17.33
2022-11-20T11:49:25.243Z,18.10
2022-11-20T11:52:16.486Z,17.57
2022-11-20T11:55:10.283Z,17.03
2022-11-20T11:58:10.241Z,18.90
2022-11-20T12:01:01.424Z,18.20
2022-11-20T12:04:00.173Z,19.73
2022-11-20T12:07:39.267Z,19.90
2022-11-20T12:10:37.665Z,19.63
2022-11-20T12:13:36.607Z,19.17
2022-11-20T12:16:23.819Z,20.33
2022-11-20T12:19:36.411Z,21.07
2022-11-20T12:22:32.470Z,20.77
2022-11-20T12:25:23.251Z,20.87
2022-11-20T12:28:32.334Z,20.50
2022-11-20T12:31:36.136Z,21.10
2022-11-20T12:34:54.232Z,19.80
2022-11-20T12:37:49.571Z,19.57
2022-11-20T12:40:43.225Z,18.53
2022-11-20T12:43:53.893Z,19.13
2022-11-20T12:46:45.943Z,20.50
2022-11-20T12:49:38.665Z,20.00
2022-11-20T12:52:37.096Z,20.00
2022-11-20T12:55:36.095Z,20.87
2022-11-20T12:58:33.838Z,19.77
2022-11-20T13:01:40.428Z,19.00
2022-11-20T13:04:48.057Z,19.80
2022-11-20T13:07:36.671Z,19.23
2022-11-20T13:10:31.989Z,18.07
2022-11-20T13:13:26.852Z,18.77
